sensor_id;sensor_type;location;lat;lon;timestamp;P1;durP1;ratioP1;P2;durP2;ratioP2
16766;SDS011;8501;49.926;8.404;2023-06-24T00:01:27;7.10;;;5.90;;
16766;SDS011;8501;49.926;8.404;2023-06-24T00:03:53;7.85;;;6.35;;
16766;SDS011;8501;49.926;8.404;2023-06-24T00:06:19;8.48;;;6.55;;
16766;SDS011;8501;49.926;8.404;2023-06-24T00:08:45;8.43;;;6.97;;
16766;SDS011;8501;49.926;8.404;2023-06-24T00:11:11;8.90;;;7.00;;
16766;SDS011;8501;49.926;8.404;2023-06-24T00:13:38;7.93;;;6.93;;
16766;SDS011;8501;49.926;8.404;2023-06-24T00:16:08;8.35;;;6.70;;
16766;SDS011;8501;49.926;8.404;2023-06-24T00:18:34;7.82;;;6.78;;
16766;SDS011;8501;49.926;8.404;2023-06-24T00:21:01;8.27;;;6.63;;
16766;SDS011;8501;49.926;8.404;2023-06-24T00:23:27;8.07;;;6.75;;
16766;SDS011;8501;49.926;8.404;2023-06-24T00:25:55;7.32;;;6.32;;
16766;SDS011;8501;49.926;8.404;2023-06-24T00:28:21;8.13;;;6.60;;
16766;SDS011;8501;49.926;8.404;2023-06-24T00:30:47;7.95;;;6.65;;
16766;SDS011;8501;49.926;8.404;2023-06-24T00:33:14;8.05;;;6.75;;
16766;SDS011;8501;49.926;8.404;2023-06-24T00:35:41;12.38;;;8.00;;
16766;SDS011;8501;49.926;8.404;2023-06-24T00:38:08;8.43;;;7.10;;
16766;SDS011;8501;49.926;8.404;2023-06-24T00:40:33;8.00;;;6.82;;
16766;SDS011;8501;49.926;8.404;2023-06-24T00:42:59;9.85;;;6.95;;
16766;SDS011;8501;49.926;8.404;2023-06-24T00:45:26;8.13;;;6.70;;
16766;SDS011;8501;49.926;8.404;2023-06-24T00:47:53;9.52;;;7.32;;
16766;SDS011;8501;49.926;8.404;2023-06-24T00:50:22;12.75;;;8.75;;
16766;SDS011;8501;49.926;8.404;2023-06-24T00:52:47;12.80;;;8.43;;
16766;SDS011;8501;49.926;8.404;2023-06-24T00:55:14;12.25;;;9.07;;
16766;SDS011;8501;49.926;8.404;2023-06-24T00:57:44;9.65;;;7.25;;
16766;SDS011;8501;49.926;8.404;2023-06-24T01:00:11;9.15;;;6.85;;
16766;SDS011;8501;49.926;8.404;2023-06-24T01:02:41;9.13;;;7.18;;
16766;SDS011;8501;49.926;8.404;2023-06-24T01:05:07;9.32;;;6.97;;
16766;SDS011;8501;49.926;8.404;2023-06-24T01:07:35;13.32;;;7.47;;
16766;SDS011;8501;49.926;8.404;2023-06-24T01:10:03;9.07;;;7.80;;
16766;SDS011;8501;49.926;8.404;2023-06-24T01:12:36;9.75;;;7.32;;
16766;SDS011;8501;49.926;8.404;2023-06-24T01:15:03;11.60;;;8.10;;
16766;SDS011;8501;49.926;8.404;2023-06-24T01:20:25;8.93;;;7.60;;
16766;SDS011;8501;49.926;8.404;2023-06-24T01:31:44;8.57;;;7.55;;
16766;SDS011;8501;49.926;8.404;2023-06-24T01:34:43;8.73;;;6.82;;
16766;SDS011;8501;49.926;8.404;2023-06-24T01:40:12;11.45;;;8.60;;
16766;SDS011;8501;49.926;8.404;2023-06-24T01:42:47;10.40;;;8.10;;
16766;SDS011;8501;49.926;8.404;2023-06-24T01:45:19;11.07;;;8.32;;
16766;SDS011;8501;49.926;8.404;2023-06-24T01:51:00;14.25;;;8.30;;
16766;SDS011;8501;49.926;8.404;2023-06-24T01:53:32;9.82;;;8.48;;
16766;SDS011;8501;49.926;8.404;2023-06-24T01:56:01;10.68;;;8.23;;
16766;SDS011;8501;49.926;8.404;2023-06-24T01:58:28;8.90;;;7.93;;
16766;SDS011;8501;49.926;8.404;2023-06-24T02:00:56;9.30;;;7.10;;
16766;SDS011;8501;49.926;8.404;2023-06-24T02:03:22;9.10;;;7.47;;
16766;SDS011;8501;49.926;8.404;2023-06-24T02:05:49;11.10;;;7.18;;
16766;SDS011;8501;49.926;8.404;2023-06-24T02:08:16;8.55;;;7.43;;
16766;SDS011;8501;49.926;8.404;2023-06-24T02:10:43;10.65;;;7.55;;
16766;SDS011;8501;49.926;8.404;2023-06-24T02:13:10;8.32;;;6.97;;
16766;SDS011;8501;49.926;8.404;2023-06-24T02:15:37;10.82;;;7.55;;
16766;SDS011;8501;49.926;8.404;2023-06-24T02:18:04;10.68;;;7.20;;
16766;SDS011;8501;49.926;8.404;2023-06-24T02:20:33;8.82;;;7.30;;
16766;SDS011;8501;49.926;8.404;2023-06-24T02:22:59;8.60;;;7.70;;
16766;SDS011;8501;49.926;8.404;2023-06-24T02:25:26;9.68;;;8.38;;
16766;SDS011;8501;49.926;8.404;2023-06-24T02:27:52;10.30;;;8.07;;
16766;SDS011;8501;49.926;8.404;2023-06-24T02:30:20;8.95;;;8.05;;
16766;SDS011;8501;49.926;8.404;2023-06-24T02:32:47;11.15;;;8.25;;
16766;SDS011;8501;49.926;8.404;2023-06-24T02:35:12;9.70;;;8.30;;
16766;SDS011;8501;49.926;8.404;2023-06-24T02:37:38;11.13;;;8.73;;
16766;SDS011;8501;49.926;8.404;2023-06-24T02:40:04;10.68;;;8.27;;
16766;SDS011;8501;49.926;8.404;2023-06-24T02:42:31;9.25;;;7.93;;
16766;SDS011;8501;49.926;8.404;2023-06-24T02:44:57;10.38;;;8.70;;
16766;SDS011;8501;49.926;8.404;2023-06-24T02:47:23;9.15;;;7.70;;
16766;SDS011;8501;49.926;8.404;2023-06-24T02:49:49;12.77;;;9.25;;
16766;SDS011;8501;49.926;8.404;2023-06-24T02:52:16;13.10;;;9.77;;
16766;SDS011;8501;49.926;8.404;2023-06-24T02:54:42;11.13;;;9.57;;
16766;SDS011;8501;49.926;8.404;2023-06-24T02:57:08;12.50;;;9.55;;
16766;SDS011;8501;49.926;8.404;2023-06-24T02:59:34;11.45;;;10.00;;
16766;SDS011;8501;49.926;8.404;2023-06-24T03:02:01;13.05;;;10.07;;
16766;SDS011;8501;49.926;8.404;2023-06-24T03:04:28;11.68;;;9.98;;
16766;SDS011;8501;49.926;8.404;2023-06-24T03:06:54;12.13;;;10.05;;
16766;SDS011;8501;49.926;8.404;2023-06-24T03:09:21;11.77;;;10.15;;
16766;SDS011;8501;49.926;8.404;2023-06-24T03:11:53;13.55;;;10.68;;
16766;SDS011;8501;49.926;8.404;2023-06-24T03:14:19;11.88;;;10.52;;
16766;SDS011;8501;49.926;8.404;2023-06-24T03:16:45;12.73;;;10.57;;
16766;SDS011;8501;49.926;8.404;2023-06-24T03:19:10;14.07;;;10.85;;
16766;SDS011;8501;49.926;8.404;2023-06-24T03:21:36;13.45;;;10.82;;
16766;SDS011;8501;49.926;8.404;2023-06-24T03:24:01;15.60;;;10.35;;
16766;SDS011;8501;49.926;8.404;2023-06-24T03:26:37;11.90;;;10.60;;
16766;SDS011;8501;49.926;8.404;2023-06-24T03:29:03;11.95;;;10.63;;
16766;SDS011;8501;49.926;8.404;2023-06-24T03:31:29;12.60;;;10.30;;
16766;SDS011;8501;49.926;8.404;2023-06-24T03:33:55;13.38;;;10.30;;
16766;SDS011;8501;49.926;8.404;2023-06-24T03:36:20;11.73;;;9.98;;
16766;SDS011;8501;49.926;8.404;2023-06-24T03:38:46;12.05;;;10.40;;
16766;SDS011;8501;49.926;8.404;2023-06-24T03:41:12;13.05;;;10.23;;
16766;SDS011;8501;49.926;8.404;2023-06-24T03:43:38;12.32;;;9.90;;
16766;SDS011;8501;49.926;8.404;2023-06-24T03:46:04;11.85;;;10.23;;
16766;SDS011;8501;49.926;8.404;2023-06-24T03:48:29;12.68;;;9.60;;
16766;SDS011;8501;49.926;8.404;2023-06-24T03:50:55;11.90;;;10.48;;
16766;SDS011;8501;49.926;8.404;2023-06-24T03:53:21;11.75;;;10.55;;
16766;SDS011;8501;49.926;8.404;2023-06-24T03:55:46;12.70;;;10.30;;
16766;SDS011;8501;49.926;8.404;2023-06-24T03:58:12;13.88;;;10.50;;
16766;SDS011;8501;49.926;8.404;2023-06-24T04:00:38;13.02;;;10.13;;
16766;SDS011;8501;49.926;8.404;2023-06-24T04:03:05;14.38;;;10.25;;
16766;SDS011;8501;49.926;8.404;2023-06-24T04:05:32;12.07;;;9.77;;
16766;SDS011;8501;49.926;8.404;2023-06-24T04:07:58;11.70;;;9.88;;
16766;SDS011;8501;49.926;8.404;2023-06-24T04:10:24;14.05;;;9.80;;
16766;SDS011;8501;49.926;8.404;2023-06-24T04:12:49;13.38;;;9.65;;
16766;SDS011;8501;49.926;8.404;2023-06-24T04:15:15;12.63;;;10.13;;
16766;SDS011;8501;49.926;8.404;2023-06-24T04:17:40;12.48;;;10.18;;
16766;SDS011;8501;49.926;8.404;2023-06-24T04:20:06;11.38;;;10.18;;
16766;SDS011;8501;49.926;8.404;2023-06-24T04:22:39;13.50;;;9.75;;
16766;SDS011;8501;49.926;8.404;2023-06-24T04:25:06;13.25;;;10.23;;
16766;SDS011;8501;49.926;8.404;2023-06-24T04:27:32;11.98;;;10.43;;
16766;SDS011;8501;49.926;8.404;2023-06-24T04:29:58;12.88;;;10.13;;
16766;SDS011;8501;49.926;8.404;2023-06-24T04:32:25;11.65;;;10.18;;
16766;SDS011;8501;49.926;8.404;2023-06-24T04:34:50;12.43;;;9.55;;
16766;SDS011;8501;49.926;8.404;2023-06-24T04:37:16;11.63;;;9.73;;
16766;SDS011;8501;49.926;8.404;2023-06-24T04:39:42;12.75;;;10.18;;
16766;SDS011;8501;49.926;8.404;2023-06-24T04:42:08;12.35;;;10.23;;
16766;SDS011;8501;49.926;8.404;2023-06-24T04:44:34;11.48;;;10.15;;
16766;SDS011;8501;49.926;8.404;2023-06-24T04:47:00;12.85;;;10.60;;
16766;SDS011;8501;49.926;8.404;2023-06-24T04:49:25;14.52;;;10.38;;
16766;SDS011;8501;49.926;8.404;2023-06-24T04:51:51;13.68;;;10.68;;
16766;SDS011;8501;49.926;8.404;2023-06-24T04:54:16;11.98;;;10.68;;
16766;SDS011;8501;49.926;8.404;2023-06-24T04:56:42;13.05;;;10.27;;
16766;SDS011;8501;49.926;8.404;2023-06-24T04:59:10;13.10;;;10.70;;
16766;SDS011;8501;49.926;8.404;2023-06-24T05:01:35;12.23;;;10.80;;
16766;SDS011;8501;49.926;8.404;2023-06-24T05:04:01;14.90;;;10.57;;
16766;SDS011;8501;49.926;8.404;2023-06-24T05:06:32;13.30;;;11.52;;
16766;SDS011;8501;49.926;8.404;2023-06-24T05:08:58;12.15;;;10.45;;
16766;SDS011;8501;49.926;8.404;2023-06-24T05:11:23;12.30;;;10.43;;
16766;SDS011;8501;49.926;8.404;2023-06-24T05:13:55;13.90;;;10.93;;
16766;SDS011;8501;49.926;8.404;2023-06-24T05:16:21;12.05;;;10.65;;
16766;SDS011;8501;49.926;8.404;2023-06-24T05:18:47;13.95;;;11.30;;
16766;SDS011;8501;49.926;8.404;2023-06-24T05:21:12;13.43;;;10.93;;
16766;SDS011;8501;49.926;8.404;2023-06-24T05:23:45;14.15;;;10.90;;
16766;SDS011;8501;49.926;8.404;2023-06-24T05:26:10;13.70;;;10.90;;
16766;SDS011;8501;49.926;8.404;2023-06-24T05:28:36;13.10;;;11.10;;
16766;SDS011;8501;49.926;8.404;2023-06-24T05:31:02;13.85;;;11.23;;
16766;SDS011;8501;49.926;8.404;2023-06-24T05:33:27;15.85;;;11.40;;
16766;SDS011;8501;49.926;8.404;2023-06-24T05:35:53;14.25;;;11.23;;
16766;SDS011;8501;49.926;8.404;2023-06-24T05:38:18;13.88;;;11.05;;
16766;SDS011;8501;49.926;8.404;2023-06-24T05:40:44;13.43;;;11.48;;
16766;SDS011;8501;49.926;8.404;2023-06-24T05:43:09;13.80;;;11.57;;
16766;SDS011;8501;49.926;8.404;2023-06-24T05:45:35;14.23;;;11.63;;
16766;SDS011;8501;49.926;8.404;2023-06-24T05:48:02;14.48;;;11.65;;
16766;SDS011;8501;49.926;8.404;2023-06-24T05:50:28;17.13;;;11.55;;
16766;SDS011;8501;49.926;8.404;2023-06-24T05:52:59;26.38;;;12.63;;
16766;SDS011;8501;49.926;8.404;2023-06-24T05:55:25;17.63;;;11.45;;
16766;SDS011;8501;49.926;8.404;2023-06-24T05:57:50;13.85;;;11.57;;
16766;SDS011;8501;49.926;8.404;2023-06-24T06:00:17;15.75;;;12.20;;
16766;SDS011;8501;49.926;8.404;2023-06-24T06:02:43;18.80;;;12.20;;
16766;SDS011;8501;49.926;8.404;2023-06-24T06:05:08;18.42;;;12.70;;
16766;SDS011;8501;49.926;8.404;2023-06-24T06:07:34;15.13;;;12.07;;
16766;SDS011;8501;49.926;8.404;2023-06-24T06:10:02;13.38;;;11.77;;
16766;SDS011;8501;49.926;8.404;2023-06-24T06:12:28;14.52;;;12.43;;
16766;SDS011;8501;49.926;8.404;2023-06-24T06:14:53;15.02;;;12.02;;
16766;SDS011;8501;49.926;8.404;2023-06-24T06:17:19;18.45;;;13.50;;
16766;SDS011;8501;49.926;8.404;2023-06-24T06:19:44;17.77;;;12.35;;
16766;SDS011;8501;49.926;8.404;2023-06-24T06:22:11;15.13;;;12.63;;
16766;SDS011;8501;49.926;8.404;2023-06-24T06:24:37;14.90;;;12.43;;
16766;SDS011;8501;49.926;8.404;2023-06-24T06:27:03;15.98;;;12.43;;
16766;SDS011;8501;49.926;8.404;2023-06-24T06:29:29;18.05;;;13.10;;
16766;SDS011;8501;49.926;8.404;2023-06-24T06:31:54;14.80;;;12.45;;
16766;SDS011;8501;49.926;8.404;2023-06-24T06:34:22;16.65;;;12.18;;
16766;SDS011;8501;49.926;8.404;2023-06-24T06:36:47;16.33;;;12.68;;
16766;SDS011;8501;49.926;8.404;2023-06-24T06:39:13;15.45;;;12.45;;
16766;SDS011;8501;49.926;8.404;2023-06-24T06:41:38;15.32;;;12.25;;
16766;SDS011;8501;49.926;8.404;2023-06-24T06:44:04;15.65;;;12.07;;
16766;SDS011;8501;49.926;8.404;2023-06-24T06:46:29;15.60;;;12.27;;
16766;SDS011;8501;49.926;8.404;2023-06-24T06:48:55;15.27;;;12.27;;
16766;SDS011;8501;49.926;8.404;2023-06-24T06:51:21;16.42;;;12.45;;
16766;SDS011;8501;49.926;8.404;2023-06-24T06:53:46;14.13;;;12.27;;
16766;SDS011;8501;49.926;8.404;2023-06-24T06:56:19;13.65;;;11.40;;
16766;SDS011;8501;49.926;8.404;2023-06-24T06:58:48;13.30;;;11.32;;
16766;SDS011;8501;49.926;8.404;2023-06-24T07:01:13;14.43;;;10.73;;
16766;SDS011;8501;49.926;8.404;2023-06-24T07:03:39;13.52;;;11.85;;
16766;SDS011;8501;49.926;8.404;2023-06-24T07:06:04;13.85;;;10.90;;
16766;SDS011;8501;49.926;8.404;2023-06-24T07:08:30;15.57;;;11.65;;
16766;SDS011;8501;49.926;8.404;2023-06-24T07:10:56;14.80;;;11.98;;
16766;SDS011;8501;49.926;8.404;2023-06-24T07:13:21;13.95;;;10.85;;
16766;SDS011;8501;49.926;8.404;2023-06-24T07:15:47;15.15;;;11.52;;
16766;SDS011;8501;49.926;8.404;2023-06-24T07:18:12;14.10;;;10.63;;
16766;SDS011;8501;49.926;8.404;2023-06-24T07:20:38;13.40;;;11.13;;
16766;SDS011;8501;49.926;8.404;2023-06-24T07:23:04;14.30;;;11.70;;
16766;SDS011;8501;49.926;8.404;2023-06-24T07:25:30;14.32;;;11.68;;
16766;SDS011;8501;49.926;8.404;2023-06-24T07:27:55;15.88;;;12.82;;
16766;SDS011;8501;49.926;8.404;2023-06-24T07:30:21;14.50;;;11.68;;
16766;SDS011;8501;49.926;8.404;2023-06-24T07:32:47;14.43;;;11.68;;
16766;SDS011;8501;49.926;8.404;2023-06-24T07:35:12;13.43;;;11.13;;
16766;SDS011;8501;49.926;8.404;2023-06-24T07:37:38;13.55;;;11.95;;
16766;SDS011;8501;49.926;8.404;2023-06-24T07:40:04;15.82;;;12.15;;
16766;SDS011;8501;49.926;8.404;2023-06-24T07:42:32;15.88;;;11.07;;
16766;SDS011;8501;49.926;8.404;2023-06-24T07:44:58;13.93;;;10.90;;
16766;SDS011;8501;49.926;8.404;2023-06-24T07:47:24;13.32;;;10.45;;
16766;SDS011;8501;49.926;8.404;2023-06-24T07:49:49;11.82;;;9.88;;
16766;SDS011;8501;49.926;8.404;2023-06-24T07:52:14;14.57;;;10.38;;
16766;SDS011;8501;49.926;8.404;2023-06-24T07:54:40;14.13;;;10.45;;
16766;SDS011;8501;49.926;8.404;2023-06-24T07:57:06;12.73;;;9.40;;
16766;SDS011;8501;49.926;8.404;2023-06-24T07:59:32;11.68;;;9.68;;
16766;SDS011;8501;49.926;8.404;2023-06-24T08:01:57;12.30;;;8.90;;
16766;SDS011;8501;49.926;8.404;2023-06-24T08:04:23;12.52;;;9.50;;
16766;SDS011;8501;49.926;8.404;2023-06-24T08:06:48;11.50;;;8.82;;
16766;SDS011;8501;49.926;8.404;2023-06-24T08:09:15;11.45;;;8.25;;
16766;SDS011;8501;49.926;8.404;2023-06-24T08:11:41;10.55;;;9.38;;
16766;SDS011;8501;49.926;8.404;2023-06-24T08:14:07;14.38;;;9.40;;
16766;SDS011;8501;49.926;8.404;2023-06-24T08:16:33;11.80;;;9.25;;
16766;SDS011;8501;49.926;8.404;2023-06-24T08:18:58;12.95;;;9.20;;
16766;SDS011;8501;49.926;8.404;2023-06-24T08:21:24;11.50;;;9.30;;
16766;SDS011;8501;49.926;8.404;2023-06-24T08:23:49;12.75;;;9.95;;
16766;SDS011;8501;49.926;8.404;2023-06-24T08:26:16;10.65;;;9.05;;
16766;SDS011;8501;49.926;8.404;2023-06-24T08:28:42;10.82;;;9.48;;
16766;SDS011;8501;49.926;8.404;2023-06-24T08:31:07;10.73;;;9.18;;
16766;SDS011;8501;49.926;8.404;2023-06-24T08:33:33;11.77;;;9.10;;
16766;SDS011;8501;49.926;8.404;2023-06-24T08:35:59;10.95;;;8.98;;
16766;SDS011;8501;49.926;8.404;2023-06-24T08:38:24;10.38;;;8.48;;
16766;SDS011;8501;49.926;8.404;2023-06-24T08:40:50;10.43;;;8.90;;
16766;SDS011;8501;49.926;8.404;2023-06-24T08:43:16;11.68;;;8.13;;
16766;SDS011;8501;49.926;8.404;2023-06-24T08:45:42;9.63;;;7.88;;
16766;SDS011;8501;49.926;8.404;2023-06-24T08:48:07;18.88;;;9.57;;
16766;SDS011;8501;49.926;8.404;2023-06-24T08:50:37;33.45;;;12.65;;
16766;SDS011;8501;49.926;8.404;2023-06-24T08:53:15;44.25;;;14.80;;
16766;SDS011;8501;49.926;8.404;2023-06-24T08:55:43;33.35;;;11.52;;
16766;SDS011;8501;49.926;8.404;2023-06-24T08:58:10;27.42;;;12.38;;
16766;SDS011;8501;49.926;8.404;2023-06-24T09:00:36;28.65;;;12.18;;
16766;SDS011;8501;49.926;8.404;2023-06-24T09:03:02;10.25;;;8.07;;
16766;SDS011;8501;49.926;8.404;2023-06-24T09:05:27;8.68;;;6.60;;
16766;SDS011;8501;49.926;8.404;2023-06-24T09:07:53;16.63;;;8.75;;
16766;SDS011;8501;49.926;8.404;2023-06-24T09:10:34;27.98;;;11.40;;
16766;SDS011;8501;49.926;8.404;2023-06-24T09:13:01;23.75;;;10.73;;
16766;SDS011;8501;49.926;8.404;2023-06-24T09:15:32;15.10;;;8.07;;
16766;SDS011;8501;49.926;8.404;2023-06-24T09:17:58;7.97;;;6.90;;
16766;SDS011;8501;49.926;8.404;2023-06-24T09:20:27;7.40;;;6.65;;
16766;SDS011;8501;49.926;8.404;2023-06-24T09:23:00;6.75;;;5.93;;
16766;SDS011;8501;49.926;8.404;2023-06-24T09:25:27;9.48;;;6.15;;
16766;SDS011;8501;49.926;8.404;2023-06-24T09:27:53;8.68;;;7.78;;
16766;SDS011;8501;49.926;8.404;2023-06-24T09:30:21;7.47;;;6.65;;
16766;SDS011;8501;49.926;8.404;2023-06-24T09:32:48;8.18;;;6.30;;
16766;SDS011;8501;49.926;8.404;2023-06-24T09:35:16;6.68;;;6.03;;
16766;SDS011;8501;49.926;8.404;2023-06-24T09:37:48;6.78;;;5.85;;
16766;SDS011;8501;49.926;8.404;2023-06-24T09:40:17;9.00;;;6.10;;
16766;SDS011;8501;49.926;8.404;2023-06-24T09:42:48;9.05;;;6.13;;
16766;SDS011;8501;49.926;8.404;2023-06-24T09:45:30;11.18;;;6.22;;
16766;SDS011;8501;49.926;8.404;2023-06-24T09:47:56;7.65;;;6.60;;
16766;SDS011;8501;49.926;8.404;2023-06-24T09:50:25;8.63;;;6.80;;
16766;SDS011;8501;49.926;8.404;2023-06-24T09:52:51;8.27;;;6.78;;
16766;SDS011;8501;49.926;8.404;2023-06-24T09:55:21;9.23;;;6.82;;
16766;SDS011;8501;49.926;8.404;2023-06-24T09:57:47;9.55;;;6.38;;
16766;SDS011;8501;49.926;8.404;2023-06-24T10:00:17;7.55;;;6.60;;
16766;SDS011;8501;49.926;8.404;2023-06-24T10:02:44;9.30;;;6.93;;
16766;SDS011;8501;49.926;8.404;2023-06-24T10:05:14;10.57;;;6.78;;
16766;SDS011;8501;49.926;8.404;2023-06-24T10:07:40;7.30;;;6.55;;
16766;SDS011;8501;49.926;8.404;2023-06-24T10:10:06;9.30;;;6.75;;
16766;SDS011;8501;49.926;8.404;2023-06-24T10:12:33;8.13;;;6.68;;
16766;SDS011;8501;49.926;8.404;2023-06-24T10:15:00;9.25;;;6.85;;
16766;SDS011;8501;49.926;8.404;2023-06-24T10:17:26;6.40;;;5.80;;
16766;SDS011;8501;49.926;8.404;2023-06-24T10:19:52;8.15;;;5.93;;
16766;SDS011;8501;49.926;8.404;2023-06-24T10:22:22;6.28;;;5.20;;
16766;SDS011;8501;49.926;8.404;2023-06-24T10:24:49;9.23;;;6.88;;
16766;SDS011;8501;49.926;8.404;2023-06-24T10:27:18;8.52;;;6.80;;
16766;SDS011;8501;49.926;8.404;2023-06-24T10:29:50;8.77;;;6.03;;
16766;SDS011;8501;49.926;8.404;2023-06-24T10:32:17;6.25;;;5.63;;
16766;SDS011;8501;49.926;8.404;2023-06-24T10:34:47;7.07;;;5.75;;
16766;SDS011;8501;49.926;8.404;2023-06-24T10:37:22;7.15;;;5.60;;
16766;SDS011;8501;49.926;8.404;2023-06-24T10:39:52;6.00;;;5.40;;
16766;SDS011;8501;49.926;8.404;2023-06-24T10:44:49;9.70;;;6.10;;
16766;SDS011;8501;49.926;8.404;2023-06-24T10:47:15;6.95;;;5.63;;
16766;SDS011;8501;49.926;8.404;2023-06-24T10:49:41;8.63;;;6.38;;
16766;SDS011;8501;49.926;8.404;2023-06-24T10:52:07;9.82;;;6.68;;
16766;SDS011;8501;49.926;8.404;2023-06-24T10:54:37;8.02;;;6.47;;
16766;SDS011;8501;49.926;8.404;2023-06-24T10:57:06;8.23;;;5.90;;
16766;SDS011;8501;49.926;8.404;2023-06-24T10:59:36;7.50;;;5.60;;
16766;SDS011;8501;49.926;8.404;2023-06-24T11:02:23;6.45;;;5.53;;
16766;SDS011;8501;49.926;8.404;2023-06-24T11:04:51;5.93;;;5.22;;
16766;SDS011;8501;49.926;8.404;2023-06-24T11:07:18;8.40;;;6.00;;
16766;SDS011;8501;49.926;8.404;2023-06-24T11:09:55;6.60;;;5.68;;
16766;SDS011;8501;49.926;8.404;2023-06-24T11:12:25;6.47;;;5.40;;
16766;SDS011;8501;49.926;8.404;2023-06-24T11:14:55;7.25;;;5.57;;
16766;SDS011;8501;49.926;8.404;2023-06-24T11:17:22;7.88;;;5.65;;
16766;SDS011;8501;49.926;8.404;2023-06-24T11:19:47;7.55;;;5.75;;
16766;SDS011;8501;49.926;8.404;2023-06-24T11:22:13;6.93;;;5.22;;
16766;SDS011;8501;49.926;8.404;2023-06-24T11:24:39;7.65;;;5.25;;
16766;SDS011;8501;49.926;8.404;2023-06-24T11:27:04;5.82;;;5.22;;
16766;SDS011;8501;49.926;8.404;2023-06-24T11:29:31;6.03;;;5.10;;
16766;SDS011;8501;49.926;8.404;2023-06-24T11:31:58;5.97;;;5.30;;
16766;SDS011;8501;49.926;8.404;2023-06-24T11:34:23;7.60;;;5.47;;
16766;SDS011;8501;49.926;8.404;2023-06-24T11:36:49;14.68;;;7.20;;
16766;SDS011;8501;49.926;8.404;2023-06-24T11:39:24;8.18;;;5.65;;
16766;SDS011;8501;49.926;8.404;2023-06-24T11:41:52;6.30;;;5.68;;
16766;SDS011;8501;49.926;8.404;2023-06-24T11:44:19;6.50;;;5.20;;
16766;SDS011;8501;49.926;8.404;2023-06-24T11:46:45;6.95;;;5.45;;
16766;SDS011;8501;49.926;8.404;2023-06-24T11:49:12;6.30;;;5.28;;
16766;SDS011;8501;49.926;8.404;2023-06-24T11:51:44;8.60;;;5.55;;
16766;SDS011;8501;49.926;8.404;2023-06-24T11:54:18;6.75;;;5.18;;
16766;SDS011;8501;49.926;8.404;2023-06-24T11:56:49;20.92;;;7.85;;
16766;SDS011;8501;49.926;8.404;2023-06-24T11:59:17;7.43;;;5.55;;
16766;SDS011;8501;49.926;8.404;2023-06-24T12:01:52;6.07;;;4.82;;
16766;SDS011;8501;49.926;8.404;2023-06-24T12:04:19;6.18;;;4.88;;
16766;SDS011;8501;49.926;8.404;2023-06-24T12:06:46;5.85;;;4.75;;
16766;SDS011;8501;49.926;8.404;2023-06-24T12:09:11;6.35;;;5.22;;
16766;SDS011;8501;49.926;8.404;2023-06-24T12:11:37;5.80;;;5.05;;
16766;SDS011;8501;49.926;8.404;2023-06-24T12:14:04;6.28;;;4.95;;
16766;SDS011;8501;49.926;8.404;2023-06-24T12:16:30;6.38;;;4.93;;
16766;SDS011;8501;49.926;8.404;2023-06-24T12:18:56;16.60;;;7.15;;
16766;SDS011;8501;49.926;8.404;2023-06-24T12:21:21;8.52;;;5.15;;
16766;SDS011;8501;49.926;8.404;2023-06-24T12:23:47;5.30;;;4.60;;
16766;SDS011;8501;49.926;8.404;2023-06-24T12:26:13;6.97;;;5.13;;
16766;SDS011;8501;49.926;8.404;2023-06-24T12:28:38;9.75;;;5.78;;
16766;SDS011;8501;49.926;8.404;2023-06-24T12:31:04;6.13;;;5.22;;
16766;SDS011;8501;49.926;8.404;2023-06-24T12:33:30;6.45;;;5.03;;
16766;SDS011;8501;49.926;8.404;2023-06-24T12:35:55;5.72;;;5.03;;
16766;SDS011;8501;49.926;8.404;2023-06-24T12:38:21;5.72;;;5.18;;
16766;SDS011;8501;49.926;8.404;2023-06-24T12:40:47;7.75;;;5.25;;
16766;SDS011;8501;49.926;8.404;2023-06-24T12:43:13;6.82;;;4.93;;
16766;SDS011;8501;49.926;8.404;2023-06-24T12:45:39;5.78;;;5.18;;
16766;SDS011;8501;49.926;8.404;2023-06-24T12:48:08;5.50;;;4.75;;
16766;SDS011;8501;49.926;8.404;2023-06-24T12:50:34;5.47;;;4.95;;
16766;SDS011;8501;49.926;8.404;2023-06-24T12:52:59;6.22;;;5.57;;
16766;SDS011;8501;49.926;8.404;2023-06-24T12:55:25;6.20;;;5.22;;
16766;SDS011;8501;49.926;8.404;2023-06-24T12:57:51;6.22;;;4.80;;
16766;SDS011;8501;49.926;8.404;2023-06-24T13:00:19;5.80;;;4.53;;
16766;SDS011;8501;49.926;8.404;2023-06-24T13:02:46;5.90;;;4.65;;
16766;SDS011;8501;49.926;8.404;2023-06-24T13:05:12;6.78;;;5.03;;
16766;SDS011;8501;49.926;8.404;2023-06-24T13:07:37;5.22;;;4.72;;
16766;SDS011;8501;49.926;8.404;2023-06-24T13:10:03;4.90;;;4.40;;
16766;SDS011;8501;49.926;8.404;2023-06-24T13:12:31;6.43;;;4.80;;
16766;SDS011;8501;49.926;8.404;2023-06-24T13:14:57;6.03;;;4.90;;
16766;SDS011;8501;49.926;8.404;2023-06-24T13:17:23;6.72;;;5.05;;
16766;SDS011;8501;49.926;8.404;2023-06-24T13:19:49;5.88;;;4.85;;
16766;SDS011;8501;49.926;8.404;2023-06-24T13:22:15;5.30;;;4.63;;
16766;SDS011;8501;49.926;8.404;2023-06-24T13:24:40;6.97;;;5.35;;
16766;SDS011;8501;49.926;8.404;2023-06-24T13:27:06;5.97;;;5.38;;
16766;SDS011;8501;49.926;8.404;2023-06-24T13:29:32;5.30;;;4.80;;
16766;SDS011;8501;49.926;8.404;2023-06-24T13:31:57;6.15;;;4.75;;
16766;SDS011;8501;49.926;8.404;2023-06-24T13:34:23;5.72;;;5.10;;
16766;SDS011;8501;49.926;8.404;2023-06-24T13:36:48;5.25;;;4.53;;
16766;SDS011;8501;49.926;8.404;2023-06-24T13:39:14;5.63;;;5.10;;
16766;SDS011;8501;49.926;8.404;2023-06-24T13:41:41;6.40;;;5.20;;
16766;SDS011;8501;49.926;8.404;2023-06-24T13:44:09;5.93;;;4.90;;
16766;SDS011;8501;49.926;8.404;2023-06-24T13:46:34;7.50;;;5.15;;
16766;SDS011;8501;49.926;8.404;2023-06-24T13:49:00;5.35;;;4.82;;
16766;SDS011;8501;49.926;8.404;2023-06-24T13:51:26;5.57;;;5.00;;
16766;SDS011;8501;49.926;8.404;2023-06-24T13:53:52;6.75;;;5.22;;
16766;SDS011;8501;49.926;8.404;2023-06-24T13:56:19;6.03;;;4.88;;
16766;SDS011;8501;49.926;8.404;2023-06-24T13:58:46;5.38;;;4.82;;
16766;SDS011;8501;49.926;8.404;2023-06-24T14:01:12;6.80;;;5.18;;
16766;SDS011;8501;49.926;8.404;2023-06-24T14:03:38;7.13;;;4.75;;
16766;SDS011;8501;49.926;8.404;2023-06-24T14:06:03;6.13;;;5.30;;
16766;SDS011;8501;49.926;8.404;2023-06-24T14:08:30;6.88;;;5.50;;
16766;SDS011;8501;49.926;8.404;2023-06-24T14:10:57;6.55;;;5.25;;
16766;SDS011;8501;49.926;8.404;2023-06-24T14:13:23;5.43;;;4.93;;
16766;SDS011;8501;49.926;8.404;2023-06-24T14:15:48;6.25;;;5.00;;
16766;SDS011;8501;49.926;8.404;2023-06-24T14:18:14;5.47;;;4.97;;
16766;SDS011;8501;49.926;8.404;2023-06-24T14:20:39;5.97;;;5.00;;
16766;SDS011;8501;49.926;8.404;2023-06-24T14:23:06;6.85;;;5.72;;
16766;SDS011;8501;49.926;8.404;2023-06-24T14:25:32;5.80;;;5.00;;
16766;SDS011;8501;49.926;8.404;2023-06-24T14:27:58;5.88;;;5.28;;
16766;SDS011;8501;49.926;8.404;2023-06-24T14:30:23;6.13;;;5.28;;
16766;SDS011;8501;49.926;8.404;2023-06-24T14:32:49;6.72;;;5.43;;
16766;SDS011;8501;49.926;8.404;2023-06-24T14:35:14;6.15;;;5.45;;
16766;SDS011;8501;49.926;8.404;2023-06-24T14:37:40;5.95;;;5.35;;
16766;SDS011;8501;49.926;8.404;2023-06-24T14:40:07;6.35;;;5.40;;
16766;SDS011;8501;49.926;8.404;2023-06-24T14:42:33;6.32;;;5.72;;
16766;SDS011;8501;49.926;8.404;2023-06-24T14:44:58;5.82;;;4.93;;
16766;SDS011;8501;49.926;8.404;2023-06-24T14:47:24;5.97;;;5.38;;
16766;SDS011;8501;49.926;8.404;2023-06-24T14:49:49;6.35;;;5.30;;
16766;SDS011;8501;49.926;8.404;2023-06-24T14:52:15;5.88;;;5.28;;
16766;SDS011;8501;49.926;8.404;2023-06-24T14:54:41;7.00;;;5.47;;
16766;SDS011;8501;49.926;8.404;2023-06-24T14:57:06;5.60;;;5.03;;
16766;SDS011;8501;49.926;8.404;2023-06-24T14:59:32;6.32;;;5.50;;
16766;SDS011;8501;49.926;8.404;2023-06-24T15:01:57;6.03;;;5.43;;
16766;SDS011;8501;49.926;8.404;2023-06-24T15:04:23;5.60;;;5.10;;
16766;SDS011;8501;49.926;8.404;2023-06-24T15:06:48;6.05;;;5.45;;
16766;SDS011;8501;49.926;8.404;2023-06-24T15:09:14;7.20;;;5.55;;